sensor_id;sensor_type;location;lat;lon;timestamp;P1;durP1;ratioP1;P2;durP2;ratioP2
6007;SDS011;3032;49.484;11.112;2023-04-06T00:00:45;9.37;;;3.70;;
6007;SDS011;3032;49.484;11.112;2023-04-06T00:03:12;3.83;;;3.53;;
6007;SDS011;3032;49.484;11.112;2023-04-06T00:05:38;4.87;;;3.60;;
6007;SDS011;3032;49.484;11.112;2023-04-06T00:08:04;4.57;;;4.13;;
6007;SDS011;3032;49.484;11.112;2023-04-06T00:10:30;8.37;;;4.63;;
6007;SDS011;3032;49.484;11.112;2023-04-06T00:12:56;7.20;;;4.50;;
6007;SDS011;3032;49.484;11.112;2023-04-06T00:15:22;6.25;;;3.83;;
6007;SDS011;3032;49.484;11.112;2023-04-06T00:17:47;3.97;;;3.57;;
6007;SDS011;3032;49.484;11.112;2023-04-06T00:20:14;4.25;;;3.95;;
6007;SDS011;3032;49.484;11.112;2023-04-06T00:22:40;5.72;;;4.13;;
6007;SDS011;3032;49.484;11.112;2023-04-06T00:25:06;5.03;;;4.10;;
6007;SDS011;3032;49.484;11.112;2023-04-06T00:27:32;5.78;;;4.55;;
6007;SDS011;3032;49.484;11.112;2023-04-06T00:29:57;4.80;;;3.73;;
6007;SDS011;3032;49.484;11.112;2023-04-06T00:32:23;4.70;;;4.00;;
6007;SDS011;3032;49.484;11.112;2023-04-06T00:34:49;7.50;;;4.17;;
6007;SDS011;3032;49.484;11.112;2023-04-06T00:37:14;5.23;;;3.83;;
6007;SDS011;3032;49.484;11.112;2023-04-06T00:39:40;4.27;;;3.87;;
6007;SDS011;3032;49.484;11.112;2023-04-06T00:42:12;4.53;;;3.70;;
6007;SDS011;3032;49.484;11.112;2023-04-06T00:44:39;7.72;;;3.97;;
6007;SDS011;3032;49.484;11.112;2023-04-06T00:47:08;5.57;;;4.50;;
6007;SDS011;3032;49.484;11.112;2023-04-06T00:49:34;4.63;;;4.00;;
6007;SDS011;3032;49.484;11.112;2023-04-06T00:52:00;7.65;;;4.60;;
6007;SDS011;3032;49.484;11.112;2023-04-06T00:54:26;6.28;;;4.13;;
6007;SDS011;3032;49.484;11.112;2023-04-06T00:56:52;7.78;;;4.20;;
6007;SDS011;3032;49.484;11.112;2023-04-06T00:59:18;4.50;;;4.10;;
6007;SDS011;3032;49.484;11.112;2023-04-06T01:01:44;8.33;;;4.33;;
6007;SDS011;3032;49.484;11.112;2023-04-06T01:04:09;6.70;;;4.53;;
6007;SDS011;3032;49.484;11.112;2023-04-06T01:06:35;10.27;;;4.97;;
6007;SDS011;3032;49.484;11.112;2023-04-06T01:09:01;6.23;;;4.00;;
6007;SDS011;3032;49.484;11.112;2023-04-06T01:11:26;5.60;;;4.10;;
6007;SDS011;3032;49.484;11.112;2023-04-06T01:13:52;5.70;;;4.33;;
6007;SDS011;3032;49.484;11.112;2023-04-06T01:16:18;5.33;;;4.23;;
6007;SDS011;3032;49.484;11.112;2023-04-06T01:18:43;4.93;;;4.30;;
6007;SDS011;3032;49.484;11.112;2023-04-06T01:21:10;5.25;;;4.25;;
6007;SDS011;3032;49.484;11.112;2023-04-06T01:23:41;6.30;;;3.75;;
6007;SDS011;3032;49.484;11.112;2023-04-06T01:26:09;5.00;;;4.18;;
6007;SDS011;3032;49.484;11.112;2023-04-06T01:28:34;6.17;;;4.57;;
6007;SDS011;3032;49.484;11.112;2023-04-06T01:31:02;8.55;;;4.38;;
6007;SDS011;3032;49.484;11.112;2023-04-06T01:33:28;7.10;;;4.32;;
6007;SDS011;3032;49.484;11.112;2023-04-06T01:35:53;6.20;;;4.30;;
6007;SDS011;3032;49.484;11.112;2023-04-06T01:38:19;7.45;;;4.57;;
6007;SDS011;3032;49.484;11.112;2023-04-06T01:40:45;5.53;;;4.37;;
6007;SDS011;3032;49.484;11.112;2023-04-06T01:43:11;5.37;;;3.87;;
6007;SDS011;3032;49.484;11.112;2023-04-06T01:45:37;4.13;;;3.63;;
6007;SDS011;3032;49.484;11.112;2023-04-06T01:48:03;6.17;;;4.77;;
6007;SDS011;3032;49.484;11.112;2023-04-06T01:50:28;10.18;;;4.18;;
6007;SDS011;3032;49.484;11.112;2023-04-06T01:52:54;7.60;;;4.20;;
6007;SDS011;3032;49.484;11.112;2023-04-06T01:55:20;8.07;;;5.10;;
6007;SDS011;3032;49.484;11.112;2023-04-06T01:57:45;9.60;;;4.90;;
6007;SDS011;3032;49.484;11.112;2023-04-06T02:00:11;5.73;;;4.50;;
6007;SDS011;3032;49.484;11.112;2023-04-06T02:02:37;7.88;;;4.72;;
6007;SDS011;3032;49.484;11.112;2023-04-06T02:05:03;5.80;;;4.37;;
6007;SDS011;3032;49.484;11.112;2023-04-06T02:07:29;4.93;;;4.43;;
6007;SDS011;3032;49.484;11.112;2023-04-06T02:09:55;5.80;;;4.20;;
6007;SDS011;3032;49.484;11.112;2023-04-06T02:12:21;7.90;;;4.53;;
6007;SDS011;3032;49.484;11.112;2023-04-06T02:14:46;8.33;;;4.50;;
6007;SDS011;3032;49.484;11.112;2023-04-06T02:17:12;6.80;;;4.23;;
6007;SDS011;3032;49.484;11.112;2023-04-06T02:19:37;8.00;;;4.37;;
6007;SDS011;3032;49.484;11.112;2023-04-06T02:22:03;10.77;;;5.27;;
6007;SDS011;3032;49.484;11.112;2023-04-06T02:24:29;6.10;;;4.50;;
6007;SDS011;3032;49.484;11.112;2023-04-06T02:26:54;6.13;;;4.80;;
6007;SDS011;3032;49.484;11.112;2023-04-06T02:29:20;6.67;;;5.27;;
6007;SDS011;3032;49.484;11.112;2023-04-06T02:31:46;4.73;;;4.20;;
6007;SDS011;3032;49.484;11.112;2023-04-06T02:34:11;5.83;;;4.23;;
6007;SDS011;3032;49.484;11.112;2023-04-06T02:36:42;9.38;;;4.45;;
6007;SDS011;3032;49.484;11.112;2023-04-06T02:39:11;5.07;;;4.15;;
6007;SDS011;3032;49.484;11.112;2023-04-06T02:41:37;5.88;;;4.07;;
6007;SDS011;3032;49.484;11.112;2023-04-06T02:44:03;4.90;;;4.47;;
6007;SDS011;3032;49.484;11.112;2023-04-06T02:46:30;4.80;;;4.30;;
6007;SDS011;3032;49.484;11.112;2023-04-06T02:48:56;5.03;;;4.43;;
6007;SDS011;3032;49.484;11.112;2023-04-06T02:51:25;4.80;;;4.18;;
6007;SDS011;3032;49.484;11.112;2023-04-06T02:53:51;4.75;;;4.25;;
6007;SDS011;3032;49.484;11.112;2023-04-06T02:56:16;5.23;;;3.80;;
6007;SDS011;3032;49.484;11.112;2023-04-06T02:58:42;5.07;;;4.57;;
6007;SDS011;3032;49.484;11.112;2023-04-06T03:01:08;4.57;;;4.17;;
6007;SDS011;3032;49.484;11.112;2023-04-06T03:03:33;4.80;;;4.10;;
6007;SDS011;3032;49.484;11.112;2023-04-06T03:05:59;4.77;;;4.37;;
6007;SDS011;3032;49.484;11.112;2023-04-06T03:08:25;6.25;;;4.18;;
6007;SDS011;3032;49.484;11.112;2023-04-06T03:10:50;6.30;;;4.27;;
6007;SDS011;3032;49.484;11.112;2023-04-06T03:13:16;5.23;;;4.73;;
6007;SDS011;3032;49.484;11.112;2023-04-06T03:15:42;4.83;;;4.23;;
6007;SDS011;3032;49.484;11.112;2023-04-06T03:18:07;7.00;;;4.30;;
6007;SDS011;3032;49.484;11.112;2023-04-06T03:20:33;5.40;;;3.93;;
6007;SDS011;3032;49.484;11.112;2023-04-06T03:22:58;6.43;;;4.37;;
6007;SDS011;3032;49.484;11.112;2023-04-06T03:25:24;5.73;;;4.43;;
6007;SDS011;3032;49.484;11.112;2023-04-06T03:27:50;4.63;;;4.17;;
6007;SDS011;3032;49.484;11.112;2023-04-06T03:30:16;5.90;;;4.17;;
6007;SDS011;3032;49.484;11.112;2023-04-06T03:32:42;7.47;;;3.95;;
6007;SDS011;3032;49.484;11.112;2023-04-06T03:35:09;5.80;;;4.40;;
6007;SDS011;3032;49.484;11.112;2023-04-06T03:37:35;8.60;;;4.50;;
6007;SDS011;3032;49.484;11.112;2023-04-06T03:40:01;4.35;;;3.95;;
6007;SDS011;3032;49.484;11.112;2023-04-06T03:42:26;10.10;;;4.80;;
6007;SDS011;3032;49.484;11.112;2023-04-06T03:44:52;5.37;;;4.20;;
6007;SDS011;3032;49.484;11.112;2023-04-06T03:47:18;4.63;;;4.00;;
6007;SDS011;3032;49.484;11.112;2023-04-06T03:49:43;5.20;;;3.93;;
6007;SDS011;3032;49.484;11.112;2023-04-06T03:52:09;5.27;;;4.20;;
6007;SDS011;3032;49.484;11.112;2023-04-06T03:54:34;5.43;;;4.57;;
6007;SDS011;3032;49.484;11.112;2023-04-06T03:57:01;4.53;;;4.10;;
6007;SDS011;3032;49.484;11.112;2023-04-06T03:59:26;6.70;;;4.20;;
6007;SDS011;3032;49.484;11.112;2023-04-06T04:01:52;4.67;;;4.27;;
6007;SDS011;3032;49.484;11.112;2023-04-06T04:04:18;6.07;;;3.83;;
6007;SDS011;3032;49.484;11.112;2023-04-06T04:06:44;3.70;;;3.40;;
6007;SDS011;3032;49.484;11.112;2023-04-06T04:09:10;5.20;;;4.70;;
6007;SDS011;3032;49.484;11.112;2023-04-06T04:11:35;6.50;;;4.70;;
6007;SDS011;3032;49.484;11.112;2023-04-06T04:14:01;9.47;;;4.60;;
6007;SDS011;3032;49.484;11.112;2023-04-06T04:16:27;5.20;;;4.60;;
6007;SDS011;3032;49.484;11.112;2023-04-06T04:18:52;4.47;;;3.87;;
6007;SDS011;3032;49.484;11.112;2023-04-06T04:21:18;5.70;;;4.57;;
6007;SDS011;3032;49.484;11.112;2023-04-06T04:23:43;6.83;;;4.50;;
6007;SDS011;3032;49.484;11.112;2023-04-06T04:26:09;5.23;;;4.07;;
6007;SDS011;3032;49.484;11.112;2023-04-06T04:28:35;5.10;;;4.40;;
6007;SDS011;3032;49.484;11.112;2023-04-06T04:31:01;4.60;;;4.17;;
6007;SDS011;3032;49.484;11.112;2023-04-06T04:33:26;5.30;;;4.17;;
6007;SDS011;3032;49.484;11.112;2023-04-06T04:35:52;4.70;;;4.20;;
6007;SDS011;3032;49.484;11.112;2023-04-06T04:38:17;4.40;;;4.00;;
6007;SDS011;3032;49.484;11.112;2023-04-06T04:40:43;4.73;;;4.10;;
6007;SDS011;3032;49.484;11.112;2023-04-06T04:43:09;8.10;;;4.67;;
6007;SDS011;3032;49.484;11.112;2023-04-06T04:45:35;4.10;;;3.80;;
6007;SDS011;3032;49.484;11.112;2023-04-06T04:48:00;5.77;;;4.60;;
6007;SDS011;3032;49.484;11.112;2023-04-06T04:50:26;10.37;;;4.20;;
6007;SDS011;3032;49.484;11.112;2023-04-06T04:52:51;5.77;;;4.30;;
6007;SDS011;3032;49.484;11.112;2023-04-06T04:55:17;5.30;;;4.37;;
6007;SDS011;3032;49.484;11.112;2023-04-06T04:57:43;5.20;;;4.27;;
6007;SDS011;3032;49.484;11.112;2023-04-06T05:00:08;7.10;;;4.23;;
6007;SDS011;3032;49.484;11.112;2023-04-06T05:02:35;5.38;;;4.28;;
6007;SDS011;3032;49.484;11.112;2023-04-06T05:05:00;6.80;;;4.10;;
6007;SDS011;3032;49.484;11.112;2023-04-06T05:07:26;10.50;;;4.17;;
6007;SDS011;3032;49.484;11.112;2023-04-06T05:09:52;5.23;;;3.77;;
6007;SDS011;3032;49.484;11.112;2023-04-06T05:12:18;5.77;;;4.00;;
6007;SDS011;3032;49.484;11.112;2023-04-06T05:14:44;6.47;;;4.80;;
6007;SDS011;3032;49.484;11.112;2023-04-06T05:17:10;4.63;;;4.00;;
6007;SDS011;3032;49.484;11.112;2023-04-06T05:19:36;5.43;;;4.33;;
6007;SDS011;3032;49.484;11.112;2023-04-06T05:22:01;4.10;;;3.70;;
6007;SDS011;3032;49.484;11.112;2023-04-06T05:24:27;5.33;;;4.53;;
6007;SDS011;3032;49.484;11.112;2023-04-06T05:26:53;4.37;;;3.97;;
6007;SDS011;3032;49.484;11.112;2023-04-06T05:29:18;4.43;;;4.03;;
6007;SDS011;3032;49.484;11.112;2023-04-06T05:31:45;7.28;;;4.30;;
6007;SDS011;3032;49.484;11.112;2023-04-06T05:34:10;4.40;;;4.00;;
6007;SDS011;3032;49.484;11.112;2023-04-06T05:36:37;8.50;;;4.40;;
6007;SDS011;3032;49.484;11.112;2023-04-06T05:39:03;5.07;;;3.77;;
6007;SDS011;3032;49.484;11.112;2023-04-06T05:41:29;4.33;;;3.83;;
6007;SDS011;3032;49.484;11.112;2023-04-06T05:43:54;6.37;;;4.73;;
6007;SDS011;3032;49.484;11.112;2023-04-06T05:46:20;6.10;;;4.37;;
6007;SDS011;3032;49.484;11.112;2023-04-06T05:48:46;4.93;;;4.43;;
6007;SDS011;3032;49.484;11.112;2023-04-06T05:51:11;6.40;;;4.77;;
6007;SDS011;3032;49.484;11.112;2023-04-06T05:53:37;5.40;;;4.20;;
6007;SDS011;3032;49.484;11.112;2023-04-06T05:56:03;5.40;;;4.40;;
6007;SDS011;3032;49.484;11.112;2023-04-06T05:58:29;6.15;;;4.22;;
6007;SDS011;3032;49.484;11.112;2023-04-06T06:00:58;7.70;;;4.37;;
6007;SDS011;3032;49.484;11.112;2023-04-06T06:03:24;6.55;;;5.25;;
6007;SDS011;3032;49.484;11.112;2023-04-06T06:05:51;6.28;;;4.70;;
6007;SDS011;3032;49.484;11.112;2023-04-06T06:08:16;4.67;;;3.70;;
6007;SDS011;3032;49.484;11.112;2023-04-06T06:10:42;10.90;;;4.70;;
6007;SDS011;3032;49.484;11.112;2023-04-06T06:13:08;5.47;;;4.40;;
6007;SDS011;3032;49.484;11.112;2023-04-06T06:15:34;6.40;;;4.43;;
6007;SDS011;3032;49.484;11.112;2023-04-06T06:18:00;4.93;;;4.43;;
6007;SDS011;3032;49.484;11.112;2023-04-06T06:20:26;5.22;;;4.25;;
6007;SDS011;3032;49.484;11.112;2023-04-06T06:22:52;4.73;;;4.30;;
6007;SDS011;3032;49.484;11.112;2023-04-06T06:25:18;5.43;;;4.50;;
6007;SDS011;3032;49.484;11.112;2023-04-06T06:27:43;5.50;;;4.20;;
6007;SDS011;3032;49.484;11.112;2023-04-06T06:30:09;8.03;;;4.37;;
6007;SDS011;3032;49.484;11.112;2023-04-06T06:32:35;6.20;;;4.43;;
6007;SDS011;3032;49.484;11.112;2023-04-06T06:35:00;4.40;;;3.93;;
6007;SDS011;3032;49.484;11.112;2023-04-06T06:37:26;4.53;;;4.07;;
6007;SDS011;3032;49.484;11.112;2023-04-06T06:39:52;5.37;;;4.20;;
6007;SDS011;3032;49.484;11.112;2023-04-06T06:42:17;6.03;;;4.50;;
6007;SDS011;3032;49.484;11.112;2023-04-06T06:44:43;6.53;;;4.93;;
6007;SDS011;3032;49.484;11.112;2023-04-06T06:47:08;5.20;;;4.40;;
6007;SDS011;3032;49.484;11.112;2023-04-06T06:49:35;5.15;;;4.30;;
6007;SDS011;3032;49.484;11.112;2023-04-06T06:52:01;6.07;;;4.30;;
6007;SDS011;3032;49.484;11.112;2023-04-06T06:54:26;5.57;;;5.03;;
6007;SDS011;3032;49.484;11.112;2023-04-06T06:56:52;7.87;;;5.57;;
6007;SDS011;3032;49.484;11.112;2023-04-06T06:59:19;6.93;;;4.72;;
6007;SDS011;3032;49.484;11.112;2023-04-06T07:01:46;6.97;;;4.50;;
6007;SDS011;3032;49.484;11.112;2023-04-06T07:04:11;7.03;;;5.97;;
6007;SDS011;3032;49.484;11.112;2023-04-06T07:06:37;6.13;;;5.40;;
6007;SDS011;3032;49.484;11.112;2023-04-06T07:09:02;7.03;;;5.87;;
6007;SDS011;3032;49.484;11.112;2023-04-06T07:11:29;8.10;;;6.33;;
6007;SDS011;3032;49.484;11.112;2023-04-06T07:13:55;6.10;;;5.05;;
6007;SDS011;3032;49.484;11.112;2023-04-06T07:16:21;6.63;;;5.93;;
6007;SDS011;3032;49.484;11.112;2023-04-06T07:18:46;7.00;;;6.30;;
6007;SDS011;3032;49.484;11.112;2023-04-06T07:21:12;8.50;;;5.47;;
6007;SDS011;3032;49.484;11.112;2023-04-06T07:23:38;8.93;;;6.47;;
6007;SDS011;3032;49.484;11.112;2023-04-06T07:26:03;11.50;;;6.67;;
6007;SDS011;3032;49.484;11.112;2023-04-06T07:28:29;7.10;;;6.40;;
6007;SDS011;3032;49.484;11.112;2023-04-06T07:30:55;9.80;;;6.30;;
6007;SDS011;3032;49.484;11.112;2023-04-06T07:33:20;7.17;;;6.47;;
6007;SDS011;3032;49.484;11.112;2023-04-06T07:35:46;7.50;;;6.73;;
6007;SDS011;3032;49.484;11.112;2023-04-06T07:38:12;10.93;;;8.47;;
6007;SDS011;3032;49.484;11.112;2023-04-06T07:40:37;6.97;;;6.17;;
6007;SDS011;3032;49.484;11.112;2023-04-06T07:43:03;8.30;;;6.73;;
6007;SDS011;3032;49.484;11.112;2023-04-06T07:45:29;9.07;;;6.80;;
6007;SDS011;3032;49.484;11.112;2023-04-06T07:47:54;7.13;;;6.50;;
6007;SDS011;3032;49.484;11.112;2023-04-06T07:50:20;12.57;;;7.10;;
6007;SDS011;3032;49.484;11.112;2023-04-06T07:52:46;8.63;;;7.30;;
6007;SDS011;3032;49.484;11.112;2023-04-06T07:55:12;11.30;;;7.13;;
6007;SDS011;3032;49.484;11.112;2023-04-06T07:57:37;10.20;;;7.30;;
6007;SDS011;3032;49.484;11.112;2023-04-06T08:00:03;9.40;;;6.77;;
6007;SDS011;3032;49.484;11.112;2023-04-06T08:02:30;8.98;;;6.60;;
6007;SDS011;3032;49.484;11.112;2023-04-06T08:04:58;10.32;;;7.35;;
6007;SDS011;3032;49.484;11.112;2023-04-06T08:07:23;12.60;;;7.90;;
6007;SDS011;3032;49.484;11.112;2023-04-06T08:09:49;9.17;;;7.33;;
6007;SDS011;3032;49.484;11.112;2023-04-06T08:12:15;8.10;;;7.30;;
6007;SDS011;3032;49.484;11.112;2023-04-06T08:14:41;9.10;;;7.60;;
6007;SDS011;3032;49.484;11.112;2023-04-06T08:17:06;8.80;;;7.50;;
6007;SDS011;3032;49.484;11.112;2023-04-06T08:19:32;9.77;;;7.57;;
6007;SDS011;3032;49.484;11.112;2023-04-06T08:21:57;8.03;;;7.10;;
6007;SDS011;3032;49.484;11.112;2023-04-06T08:24:23;8.10;;;7.30;;
6007;SDS011;3032;49.484;11.112;2023-04-06T08:26:49;9.03;;;7.10;;
6007;SDS011;3032;49.484;11.112;2023-04-06T08:29:16;9.77;;;6.93;;
6007;SDS011;3032;49.484;11.112;2023-04-06T08:31:41;7.40;;;6.37;;
6007;SDS011;3032;49.484;11.112;2023-04-06T08:34:07;7.70;;;7.00;;
6007;SDS011;3032;49.484;11.112;2023-04-06T08:36:33;7.43;;;6.60;;
6007;SDS011;3032;49.484;11.112;2023-04-06T08:38:59;8.37;;;6.77;;
6007;SDS011;3032;49.484;11.112;2023-04-06T08:41:25;8.73;;;7.45;;
6007;SDS011;3032;49.484;11.112;2023-04-06T08:43:55;9.90;;;7.03;;
6007;SDS011;3032;49.484;11.112;2023-04-06T08:46:23;9.98;;;7.00;;
6007;SDS011;3032;49.484;11.112;2023-04-06T08:48:54;8.75;;;6.97;;
6007;SDS011;3032;49.484;11.112;2023-04-06T08:51:21;9.55;;;7.75;;
6007;SDS011;3032;49.484;11.112;2023-04-06T08:53:53;9.65;;;7.40;;
6007;SDS011;3032;49.484;11.112;2023-04-06T08:56:21;6.97;;;6.28;;
6007;SDS011;3032;49.484;11.112;2023-04-06T08:58:51;8.63;;;7.25;;
6007;SDS011;3032;49.484;11.112;2023-04-06T09:01:20;11.85;;;7.00;;
6007;SDS011;3032;49.484;11.112;2023-04-06T09:03:48;10.40;;;6.97;;
6007;SDS011;3032;49.484;11.112;2023-04-06T09:06:15;13.90;;;7.13;;
6007;SDS011;3032;49.484;11.112;2023-04-06T09:08:41;7.70;;;6.90;;
6007;SDS011;3032;49.484;11.112;2023-04-06T09:11:07;8.50;;;6.75;;
6007;SDS011;3032;49.484;11.112;2023-04-06T09:16:12;12.25;;;7.32;;
6007;SDS011;3032;49.484;11.112;2023-04-06T09:18:38;8.20;;;6.87;;
6007;SDS011;3032;49.484;11.112;2023-04-06T09:21:05;7.40;;;6.63;;
6007;SDS011;3032;49.484;11.112;2023-04-06T09:23:32;7.30;;;6.60;;
6007;SDS011;3032;49.484;11.112;2023-04-06T09:31:10;10.02;;;6.15;;
6007;SDS011;3032;49.484;11.112;2023-04-06T09:33:38;8.07;;;6.63;;
6007;SDS011;3032;49.484;11.112;2023-04-06T09:36:06;14.30;;;7.43;;
6007;SDS011;3032;49.484;11.112;2023-04-06T09:38:34;7.90;;;6.72;;
6007;SDS011;3032;49.484;11.112;2023-04-06T09:41:01;7.97;;;7.18;;
6007;SDS011;3032;49.484;11.112;2023-04-06T09:43:27;7.50;;;6.80;;
6007;SDS011;3032;49.484;11.112;2023-04-06T09:45:53;7.33;;;6.63;;
6007;SDS011;3032;49.484;11.112;2023-04-06T09:48:21;7.57;;;6.93;;
6007;SDS011;3032;49.484;11.112;2023-04-06T09:50:50;8.10;;;7.05;;
6007;SDS011;3032;49.484;11.112;2023-04-06T09:53:22;8.27;;;7.47;;
6007;SDS011;3032;49.484;11.112;2023-04-06T09:55:51;8.38;;;7.35;;
6007;SDS011;3032;49.484;11.112;2023-04-06T09:58:22;8.23;;;7.40;;
6007;SDS011;3032;49.484;11.112;2023-04-06T10:01:00;7.78;;;7.13;;
6007;SDS011;3032;49.484;11.112;2023-04-06T10:06:13;9.00;;;7.40;;
6007;SDS011;3032;49.484;11.112;2023-04-06T10:08:42;403.38;;;24.42;;
6007;SDS011;3032;49.484;11.112;2023-04-06T10:11:11;8.38;;;7.55;;
6007;SDS011;3032;49.484;11.112;2023-04-06T10:13:37;9.88;;;8.25;;
6007;SDS011;3032;49.484;11.112;2023-04-06T10:16:03;11.40;;;8.60;;
6007;SDS011;3032;49.484;11.112;2023-04-06T10:18:29;10.48;;;8.00;;
6007;SDS011;3032;49.484;11.112;2023-04-06T10:20:56;7.77;;;7.03;;
6007;SDS011;3032;49.484;11.112;2023-04-06T10:23:29;9.93;;;7.97;;
6007;SDS011;3032;49.484;11.112;2023-04-06T10:26:20;8.90;;;8.10;;
6007;SDS011;3032;49.484;11.112;2023-04-06T10:28:47;8.60;;;7.80;;
6007;SDS011;3032;49.484;11.112;2023-04-06T10:31:14;10.05;;;8.68;;
6007;SDS011;3032;49.484;11.112;2023-04-06T10:33:40;9.48;;;7.80;;
6007;SDS011;3032;49.484;11.112;2023-04-06T10:36:26;8.97;;;8.10;;
6007;SDS011;3032;49.484;11.112;2023-04-06T10:38:59;9.00;;;8.10;;
6007;SDS011;3032;49.484;11.112;2023-04-06T10:44:00;7.43;;;6.82;;
6007;SDS011;3032;49.484;11.112;2023-04-06T10:46:27;8.98;;;8.05;;
6007;SDS011;3032;49.484;11.112;2023-04-06T10:48:57;8.73;;;7.63;;
6007;SDS011;3032;49.484;11.112;2023-04-06T10:51:24;9.13;;;7.38;;
6007;SDS011;3032;49.484;11.112;2023-04-06T10:53:52;8.07;;;7.38;;
6007;SDS011;3032;49.484;11.112;2023-04-06T10:56:21;9.60;;;8.25;;
6007;SDS011;3032;49.484;11.112;2023-04-06T10:58:48;7.85;;;7.15;;
6007;SDS011;3032;49.484;11.112;2023-04-06T11:01:18;8.30;;;7.50;;
6007;SDS011;3032;49.484;11.112;2023-04-06T11:03:47;8.35;;;7.15;;
6007;SDS011;3032;49.484;11.112;2023-04-06T11:06:32;7.00;;;6.38;;
6007;SDS011;3032;49.484;11.112;2023-04-06T11:08:58;7.60;;;6.60;;
6007;SDS011;3032;49.484;11.112;2023-04-06T11:11:25;7.30;;;6.47;;
6007;SDS011;3032;49.484;11.112;2023-04-06T11:14:00;7.00;;;6.30;;
6007;SDS011;3032;49.484;11.112;2023-04-06T11:16:29;8.40;;;7.60;;
6007;SDS011;3032;49.484;11.112;2023-04-06T11:18:57;7.32;;;6.60;;
6007;SDS011;3032;49.484;11.112;2023-04-06T11:21:37;7.88;;;7.10;;
6007;SDS011;3032;49.484;11.112;2023-04-06T11:26:50;7.40;;;6.70;;
6007;SDS011;3032;49.484;11.112;2023-04-06T11:29:21;7.43;;;6.78;;
6007;SDS011;3032;49.484;11.112;2023-04-06T11:32:08;7.82;;;7.22;;
6007;SDS011;3032;49.484;11.112;2023-04-06T11:34:37;9.07;;;7.63;;
6007;SDS011;3032;49.484;11.112;2023-04-06T11:37:07;7.22;;;6.70;;
6007;SDS011;3032;49.484;11.112;2023-04-06T11:39:50;8.10;;;7.30;;
6007;SDS011;3032;49.484;11.112;2023-04-06T11:44:50;7.80;;;7.10;;
6007;SDS011;3032;49.484;11.112;2023-04-06T11:47:17;7.93;;;6.80;;
6007;SDS011;3032;49.484;11.112;2023-04-06T11:49:44;7.30;;;6.60;;
6007;SDS011;3032;49.484;11.112;2023-04-06T11:52:19;7.00;;;6.35;;
6007;SDS011;3032;49.484;11.112;2023-04-06T11:54:49;6.85;;;6.25;;
6007;SDS011;3032;49.484;11.112;2023-04-06T11:57:16;9.43;;;7.45;;
6007;SDS011;3032;49.484;11.112;2023-04-06T11:59:44;9.07;;;8.18;;
6007;SDS011;3032;49.484;11.112;2023-04-06T12:02:10;8.05;;;7.32;;
6007;SDS011;3032;49.484;11.112;2023-04-06T12:04:36;7.80;;;7.10;;
6007;SDS011;3032;49.484;11.112;2023-04-06T12:07:02;7.70;;;7.03;;
6007;SDS011;3032;49.484;11.112;2023-04-06T12:09:29;8.13;;;7.25;;
6007;SDS011;3032;49.484;11.112;2023-04-06T12:11:55;7.90;;;7.10;;
6007;SDS011;3032;49.484;11.112;2023-04-06T12:14:21;8.10;;;7.47;;
6007;SDS011;3032;49.484;11.112;2023-04-06T12:16:46;7.20;;;6.50;;
6007;SDS011;3032;49.484;11.112;2023-04-06T12:19:12;7.80;;;7.00;;
6007;SDS011;3032;49.484;11.112;2023-04-06T12:21:38;8.70;;;7.80;;
6007;SDS011;3032;49.484;11.112;2023-04-06T12:24:04;8.03;;;7.33;;
6007;SDS011;3032;49.484;11.112;2023-04-06T12:26:30;7.60;;;6.90;;
6007;SDS011;3032;49.484;11.112;2023-04-06T12:28:56;8.50;;;7.60;;
6007;SDS011;3032;49.484;11.112;2023-04-06T12:31:29;6.03;;;5.45;;
6007;SDS011;3032;49.484;11.112;2023-04-06T12:33:55;7.97;;;6.90;;
6007;SDS011;3032;49.484;11.112;2023-04-06T12:36:21;7.50;;;6.73;;
6007;SDS011;3032;49.484;11.112;2023-04-06T12:38:47;8.10;;;7.50;;
6007;SDS011;3032;49.484;11.112;2023-04-06T12:41:13;9.27;;;5.97;;
6007;SDS011;3032;49.484;11.112;2023-04-06T12:43:40;8.02;;;6.40;;
6007;SDS011;3032;49.484;11.112;2023-04-06T12:46:06;7.00;;;6.40;;
6007;SDS011;3032;49.484;11.112;2023-04-06T12:48:32;6.57;;;5.97;;
6007;SDS011;3032;49.484;11.112;2023-04-06T12:50:59;7.13;;;6.07;;
6007;SDS011;3032;49.484;11.112;2023-04-06T12:53:25;7.53;;;6.10;;
6007;SDS011;3032;49.484;11.112;2023-04-06T12:55:51;6.90;;;6.25;;
6007;SDS011;3032;49.484;11.112;2023-04-06T12:58:18;7.60;;;6.40;;
6007;SDS011;3032;49.484;11.112;2023-04-06T13:00:44;6.57;;;5.97;;
6007;SDS011;3032;49.484;11.112;2023-04-06T13:03:10;8.68;;;6.30;;
6007;SDS011;3032;49.484;11.112;2023-04-06T13:05:36;7.60;;;7.00;;
6007;SDS011;3032;49.484;11.112;2023-04-06T13:08:08;8.02;;;7.32;;
6007;SDS011;3032;49.484;11.112;2023-04-06T13:10:33;7.73;;;7.00;;
6007;SDS011;3032;49.484;11.112;2023-04-06T13:12:59;7.57;;;6.87;;
6007;SDS011;3032;49.484;11.112;2023-04-06T13:15:25;6.30;;;5.70;;
6007;SDS011;3032;49.484;11.112;2023-04-06T13:17:50;9.20;;;6.47;;
6007;SDS011;3032;49.484;11.112;2023-04-06T13:20:16;11.00;;;6.90;;
6007;SDS011;3032;49.484;11.112;2023-04-06T13:22:42;7.53;;;6.83;;
6007;SDS011;3032;49.484;11.112;2023-04-06T13:25:07;7.10;;;6.40;;
6007;SDS011;3032;49.484;11.112;2023-04-06T13:27:33;7.77;;;7.07;;
6007;SDS011;3032;49.484;11.112;2023-04-06T13:30:00;7.28;;;6.53;;
6007;SDS011;3032;49.484;11.112;2023-04-06T13:32:27;8.10;;;7.25;;
6007;SDS011;3032;49.484;11.112;2023-04-06T13:34:56;8.80;;;6.87;;
6007;SDS011;3032;49.484;11.112;2023-04-06T13:37:22;7.55;;;6.80;;
6007;SDS011;3032;49.484;11.112;2023-04-06T13:39:47;7.20;;;6.50;;
6007;SDS011;3032;49.484;11.112;2023-04-06T13:42:13;8.33;;;6.87;;
6007;SDS011;3032;49.484;11.112;2023-04-06T13:44:39;7.57;;;6.93;;
6007;SDS011;3032;49.484;11.112;2023-04-06T13:47:04;7.00;;;6.33;;
6007;SDS011;3032;49.484;11.112;2023-04-06T13:49:30;7.67;;;6.97;;
6007;SDS011;3032;49.484;11.112;2023-04-06T13:51:56;9.27;;;7.80;;
6007;SDS011;3032;49.484;11.112;2023-04-06T13:54:22;8.10;;;7.30;;
6007;SDS011;3032;49.484;11.112;2023-04-06T13:56:47;8.33;;;7.43;;
6007;SDS011;3032;49.484;11.112;2023-04-06T13:59:13;7.33;;;6.73;;
6007;SDS011;3032;49.484;11.112;2023-04-06T14:01:38;7.67;;;6.97;;
6007;SDS011;3032;49.484;11.112;2023-04-06T14:04:04;7.73;;;7.07;;
6007;SDS011;3032;49.484;11.112;2023-04-06T14:06:30;8.53;;;7.63;;
6007;SDS011;3032;49.484;11.112;2023-04-06T14:08:55;8.97;;;8.03;;
6007;SDS011;3032;49.484;11.112;2023-04-06T14:11:22;7.28;;;6.57;;
6007;SDS011;3032;49.484;11.112;2023-04-06T14:13:47;7.03;;;6.43;;
6007;SDS011;3032;49.484;11.112;2023-04-06T14:16:13;8.20;;;7.50;;
6007;SDS011;3032;49.484;11.112;2023-04-06T14:18:38;7.87;;;7.13;;
6007;SDS011;3032;49.484;11.112;2023-04-06T14:21:04;10.00;;;7.97;;
6007;SDS011;3032;49.484;11.112;2023-04-06T14:23:31;8.57;;;7.70;;
6007;SDS011;3032;49.484;11.112;2023-04-06T14:26:04;7.38;;;6.60;;
6007;SDS011;3032;49.484;11.112;2023-04-06T14:28:31;9.80;;;8.88;;
6007;SDS011;3032;49.484;11.112;2023-04-06T14:30:58;9.45;;;8.55;;
6007;SDS011;3032;49.484;11.112;2023-04-06T14:33:25;8.63;;;7.60;;
6007;SDS011;3032;49.484;11.112;2023-04-06T14:35:51;8.10;;;7.40;;
6007;SDS011;3032;49.484;11.112;2023-04-06T14:38:17;7.87;;;7.17;;
6007;SDS011;3032;49.484;11.112;2023-04-06T14:40:42;8.93;;;8.03;;
6007;SDS011;3032;49.484;11.112;2023-04-06T14:43:08;11.93;;;7.67;;
6007;SDS011;3032;49.484;11.112;2023-04-06T14:45:33;8.70;;;8.00;;
6007;SDS011;3032;49.484;11.112;2023-04-06T14:48:04;8.95;;;8.15;;
6007;SDS011;3032;49.484;11.112;2023-04-06T14:50:31;7.90;;;7.20;;
6007;SDS011;3032;49.484;11.112;2023-04-06T14:52:58;8.75;;;7.45;;
6007;SDS011;3032;49.484;11.112;2023-04-06T14:55:24;7.25;;;6.63;;
6007;SDS011;3032;49.484;11.112;2023-04-06T14:57:50;8.70;;;7.90;;
6007;SDS011;3032;49.484;11.112;2023-04-06T15:00:16;8.50;;;7.70;;
6007;SDS011;3032;49.484;11.112;2023-04-06T15:02:42;8.88;;;8.07;;
6007;SDS011;3032;49.484;11.112;2023-04-06T15:05:08;9.90;;;8.27;;
6007;SDS011;3032;49.484;11.112;2023-04-06T15:07:33;10.03;;;9.13;;
6007;SDS011;3032;49.484;11.112;2023-04-06T15:09:59;9.67;;;8.60;;
6007;SDS011;3032;49.484;11.112;2023-04-06T15:12:25;9.30;;;8.53;;
6007;SDS011;3032;49.484;11.112;2023-04-06T15:14:50;10.40;;;9.23;;